sensor_id;sensor_type;location;lat;lon;timestamp;temperature;humidity
28189;DHT22;15471;51.166;4.470;2023-03-01T00:01:30;-0.10;99.90
28189;DHT22;15471;51.166;4.470;2023-03-01T00:03:57;-0.10;99.90
28189;DHT22;15471;51.166;4.470;2023-03-01T00:06:24;-0.20;99.90
28189;DHT22;15471;51.166;4.470;2023-03-01T00:08:50;-0.20;99.90
28189;DHT22;15471;51.166;4.470;2023-03-01T00:11:22;-0.20;99.90
28189;DHT22;15471;51.166;4.470;2023-03-01T00:13:48;-0.20;99.90
28189;DHT22;15471;51.166;4.470;2023-03-01T00:16:20;-0.20;99.90
28189;DHT22;15471;51.166;4.470;2023-03-01T00:18:46;-0.20;99.90
28189;DHT22;15471;51.166;4.470;2023-03-01T00:21:12;-0.30;99.90
28189;DHT22;15471;51.166;4.470;2023-03-01T00:23:38;-0.30;99.90
28189;DHT22;15471;51.166;4.470;2023-03-01T00:26:10;-0.40;99.90
28189;DHT22;15471;51.166;4.470;2023-03-01T00:28:39;-0.30;99.90
28189;DHT22;15471;51.166;4.470;2023-03-01T00:31:11;-0.40;99.90
28189;DHT22;15471;51.166;4.470;2023-03-01T00:33:38;-0.30;99.90
28189;DHT22;15471;51.166;4.470;2023-03-01T00:36:05;-0.30;99.90
28189;DHT22;15471;51.166;4.470;2023-03-01T00:38:34;-0.40;99.90
28189;DHT22;15471;51.166;4.470;2023-03-01T00:41:08;-0.40;99.90
28189;DHT22;15471;51.166;4.470;2023-03-01T00:43:34;-0.30;99.90
28189;DHT22;15471;51.166;4.470;2023-03-01T00:46:04;-0.40;99.90
28189;DHT22;15471;51.166;4.470;2023-03-01T00:48:30;-0.40;99.90
28189;DHT22;15471;51.166;4.470;2023-03-01T00:50:56;-0.40;99.90
28189;DHT22;15471;51.166;4.470;2023-03-01T00:53:21;-0.40;99.90
28189;DHT22;15471;51.166;4.470;2023-03-01T00:55:47;-0.50;99.90
28189;DHT22;15471;51.166;4.470;2023-03-01T00:58:13;-0.50;99.90
28189;DHT22;15471;51.166;4.470;2023-03-01T01:00:39;-0.50;99.90
28189;DHT22;15471;51.166;4.470;2023-03-01T01:03:04;-0.50;99.90
28189;DHT22;15471;51.166;4.470;2023-03-01T01:05:30;-0.60;99.90
28189;DHT22;15471;51.166;4.470;2023-03-01T01:07:56;-0.60;99.90
28189;DHT22;15471;51.166;4.470;2023-03-01T01:10:22;-0.60;99.90
28189;DHT22;15471;51.166;4.470;2023-03-01T01:12:48;-0.50;99.90
28189;DHT22;15471;51.166;4.470;2023-03-01T01:15:13;-0.60;99.90
28189;DHT22;15471;51.166;4.470;2023-03-01T01:17:42;-0.60;99.90
28189;DHT22;15471;51.166;4.470;2023-03-01T01:20:08;-0.60;99.90
28189;DHT22;15471;51.166;4.470;2023-03-01T01:22:35;-0.60;99.90
28189;DHT22;15471;51.166;4.470;2023-03-01T01:25:01;-0.60;99.90
28189;DHT22;15471;51.166;4.470;2023-03-01T01:27:27;-0.60;99.90
28189;DHT22;15471;51.166;4.470;2023-03-01T01:29:53;-0.60;99.90
28189;DHT22;15471;51.166;4.470;2023-03-01T01:32:19;-0.60;99.90
28189;DHT22;15471;51.166;4.470;2023-03-01T01:34:45;-0.60;99.90
28189;DHT22;15471;51.166;4.470;2023-03-01T01:37:12;-0.60;99.90
28189;DHT22;15471;51.166;4.470;2023-03-01T01:39:37;-0.60;99.90
28189;DHT22;15471;51.166;4.470;2023-03-01T01:42:03;-0.70;99.90
28189;DHT22;15471;51.166;4.470;2023-03-01T01:44:30;-0.70;99.90
28189;DHT22;15471;51.166;4.470;2023-03-01T01:47:02;-0.70;99.90
28189;DHT22;15471;51.166;4.470;2023-03-01T01:49:33;-0.80;99.90
28189;DHT22;15471;51.166;4.470;2023-03-01T01:57:40;-0.90;99.90
28189;DHT22;15471;51.166;4.470;2023-03-01T02:00:10;-0.90;99.90
28189;DHT22;15471;51.166;4.470;2023-03-01T02:02:41;-0.90;99.90
28189;DHT22;15471;51.166;4.470;2023-03-01T02:05:24;-0.90;99.90
28189;DHT22;15471;51.166;4.470;2023-03-01T02:07:52;-0.90;99.90
28189;DHT22;15471;51.166;4.470;2023-03-01T02:10:22;-1.00;99.90
28189;DHT22;15471;51.166;4.470;2023-03-01T02:12:49;-1.00;99.90
28189;DHT22;15471;51.166;4.470;2023-03-01T02:15:15;-1.00;99.90
28189;DHT22;15471;51.166;4.470;2023-03-01T02:17:41;-1.00;99.90
28189;DHT22;15471;51.166;4.470;2023-03-01T02:22:44;-1.00;99.90
28189;DHT22;15471;51.166;4.470;2023-03-01T02:30:18;-1.10;99.90
28189;DHT22;15471;51.166;4.470;2023-03-01T02:32:44;-1.10;99.90
28189;DHT22;15471;51.166;4.470;2023-03-01T02:35:13;-1.10;99.90
28189;DHT22;15471;51.166;4.470;2023-03-01T02:37:41;-1.10;99.90
28189;DHT22;15471;51.166;4.470;2023-03-01T02:40:11;-1.10;99.90
28189;DHT22;15471;51.166;4.470;2023-03-01T02:42:53;-1.10;99.90
28189;DHT22;15471;51.166;4.470;2023-03-01T02:45:20;-1.20;99.90
28189;DHT22;15471;51.166;4.470;2023-03-01T02:47:46;-1.10;99.90
28189;DHT22;15471;51.166;4.470;2023-03-01T02:53:16;-1.10;99.90
28189;DHT22;15471;51.166;4.470;2023-03-01T02:55:46;-1.10;99.90
28189;DHT22;15471;51.166;4.470;2023-03-01T02:58:13;-1.10;99.90
28189;DHT22;15471;51.166;4.470;2023-03-01T03:00:41;-1.10;99.90
28189;DHT22;15471;51.166;4.470;2023-03-01T03:03:14;-1.20;99.90
28189;DHT22;15471;51.166;4.470;2023-03-01T03:05:41;-1.20;99.90
28189;DHT22;15471;51.166;4.470;2023-03-01T03:08:07;-1.20;99.90
28189;DHT22;15471;51.166;4.470;2023-03-01T03:10:38;-1.10;99.90
28189;DHT22;15471;51.166;4.470;2023-03-01T03:13:07;-1.20;99.90
28189;DHT22;15471;51.166;4.470;2023-03-01T03:15:34;-1.20;99.90
28189;DHT22;15471;51.166;4.470;2023-03-01T03:18:04;-1.20;99.90
28189;DHT22;15471;51.166;4.470;2023-03-01T03:20:30;-1.20;99.90
28189;DHT22;15471;51.166;4.470;2023-03-01T03:22:58;-1.20;99.90
28189;DHT22;15471;51.166;4.470;2023-03-01T03:25:25;-1.30;99.90
28189;DHT22;15471;51.166;4.470;2023-03-01T03:27:52;-1.20;99.90
28189;DHT22;15471;51.166;4.470;2023-03-01T03:30:30;-1.20;99.90
28189;DHT22;15471;51.166;4.470;2023-03-01T03:32:57;-1.20;99.90
28189;DHT22;15471;51.166;4.470;2023-03-01T03:35:26;-1.10;99.90
28189;DHT22;15471;51.166;4.470;2023-03-01T03:37:53;-1.20;99.90
28189;DHT22;15471;51.166;4.470;2023-03-01T03:41:00;-1.20;99.90
28189;DHT22;15471;51.166;4.470;2023-03-01T03:43:29;-1.30;99.90
28189;DHT22;15471;51.166;4.470;2023-03-01T03:45:55;-1.30;99.90
28189;DHT22;15471;51.166;4.470;2023-03-01T03:48:23;-1.20;99.90
28189;DHT22;15471;51.166;4.470;2023-03-01T03:50:52;-1.40;99.90
28189;DHT22;15471;51.166;4.470;2023-03-01T03:53:19;-1.40;99.90
28189;DHT22;15471;51.166;4.470;2023-03-01T03:55:45;-1.40;99.90
28189;DHT22;15471;51.166;4.470;2023-03-01T03:58:15;-1.40;99.90
28189;DHT22;15471;51.166;4.470;2023-03-01T04:00:44;-1.40;99.90
28189;DHT22;15471;51.166;4.470;2023-03-01T04:03:11;-1.40;99.90
28189;DHT22;15471;51.166;4.470;2023-03-01T04:05:38;-1.40;99.90
28189;DHT22;15471;51.166;4.470;2023-03-01T04:08:04;-1.40;99.90
28189;DHT22;15471;51.166;4.470;2023-03-01T04:10:44;-1.40;99.90
28189;DHT22;15471;51.166;4.470;2023-03-01T04:13:12;-1.40;99.90
28189;DHT22;15471;51.166;4.470;2023-03-01T04:15:39;-1.50;99.90
28189;DHT22;15471;51.166;4.470;2023-03-01T04:18:06;-1.50;99.90
28189;DHT22;15471;51.166;4.470;2023-03-01T04:20:34;-1.40;99.90
28189;DHT22;15471;51.166;4.470;2023-03-01T04:23:04;-1.40;99.90
28189;DHT22;15471;51.166;4.470;2023-03-01T04:28:27;-1.50;99.90
28189;DHT22;15471;51.166;4.470;2023-03-01T04:30:55;-1.60;99.90
28189;DHT22;15471;51.166;4.470;2023-03-01T04:33:21;-1.60;99.90
28189;DHT22;15471;51.166;4.470;2023-03-01T04:35:47;-1.50;99.90
28189;DHT22;15471;51.166;4.470;2023-03-01T04:38:18;-1.50;99.90
28189;DHT22;15471;51.166;4.470;2023-03-01T04:40:44;-1.50;99.90
28189;DHT22;15471;51.166;4.470;2023-03-01T04:43:11;-1.50;99.90
28189;DHT22;15471;51.166;4.470;2023-03-01T04:45:38;-1.50;99.90
28189;DHT22;15471;51.166;4.470;2023-03-01T04:48:04;-1.60;99.90
28189;DHT22;15471;51.166;4.470;2023-03-01T04:50:30;-1.60;99.90
28189;DHT22;15471;51.166;4.470;2023-03-01T04:52:56;-1.50;99.90
28189;DHT22;15471;51.166;4.470;2023-03-01T04:55:28;-1.50;99.90
28189;DHT22;15471;51.166;4.470;2023-03-01T04:57:54;-1.40;99.90
28189;DHT22;15471;51.166;4.470;2023-03-01T05:00:21;-1.50;99.90
28189;DHT22;15471;51.166;4.470;2023-03-01T05:02:56;-1.50;99.90
28189;DHT22;15471;51.166;4.470;2023-03-01T05:05:31;-1.50;99.90
28189;DHT22;15471;51.166;4.470;2023-03-01T05:07:59;-1.40;99.90
28189;DHT22;15471;51.166;4.470;2023-03-01T05:10:27;-1.40;99.90
28189;DHT22;15471;51.166;4.470;2023-03-01T05:12:57;-1.40;99.90
28189;DHT22;15471;51.166;4.470;2023-03-01T05:15:25;-1.40;99.90
28189;DHT22;15471;51.166;4.470;2023-03-01T05:17:53;-1.50;99.90
28189;DHT22;15471;51.166;4.470;2023-03-01T05:20:20;-1.50;99.90
28189;DHT22;15471;51.166;4.470;2023-03-01T05:22:49;-1.50;99.90
28189;DHT22;15471;51.166;4.470;2023-03-01T05:25:15;-1.50;99.90
28189;DHT22;15471;51.166;4.470;2023-03-01T05:27:41;-1.50;99.90
28189;DHT22;15471;51.166;4.470;2023-03-01T05:30:07;-1.50;99.90
28189;DHT22;15471;51.166;4.470;2023-03-01T05:32:46;-1.50;99.90
28189;DHT22;15471;51.166;4.470;2023-03-01T05:35:14;-1.50;99.90
28189;DHT22;15471;51.166;4.470;2023-03-01T05:37:42;-1.50;99.90
28189;DHT22;15471;51.166;4.470;2023-03-01T05:40:10;-1.50;99.90
28189;DHT22;15471;51.166;4.470;2023-03-01T05:42:49;-1.60;99.90
28189;DHT22;15471;51.166;4.470;2023-03-01T05:45:16;-1.60;99.90
28189;DHT22;15471;51.166;4.470;2023-03-01T05:47:44;-1.60;99.90
28189;DHT22;15471;51.166;4.470;2023-03-01T05:50:11;-1.60;99.90
28189;DHT22;15471;51.166;4.470;2023-03-01T05:52:37;-1.70;99.90
28189;DHT22;15471;51.166;4.470;2023-03-01T05:55:03;-1.70;99.90
28189;DHT22;15471;51.166;4.470;2023-03-01T05:57:29;-1.70;99.90
28189;DHT22;15471;51.166;4.470;2023-03-01T05:59:55;-1.70;99.90
28189;DHT22;15471;51.166;4.470;2023-03-01T06:02:21;-1.70;99.90
28189;DHT22;15471;51.166;4.470;2023-03-01T06:04:47;-1.70;99.90
28189;DHT22;15471;51.166;4.470;2023-03-01T06:07:13;-1.70;99.90
28189;DHT22;15471;51.166;4.470;2023-03-01T06:09:38;-1.70;99.90
28189;DHT22;15471;51.166;4.470;2023-03-01T06:12:04;-1.70;99.90
28189;DHT22;15471;51.166;4.470;2023-03-01T06:14:31;-1.80;99.90
28189;DHT22;15471;51.166;4.470;2023-03-01T06:16:57;-1.80;99.90
28189;DHT22;15471;51.166;4.470;2023-03-01T06:19:23;-1.80;99.90
28189;DHT22;15471;51.166;4.470;2023-03-01T06:21:49;-1.80;99.90
28189;DHT22;15471;51.166;4.470;2023-03-01T06:24:15;-1.80;99.90
28189;DHT22;15471;51.166;4.470;2023-03-01T06:26:41;-1.80;99.90
28189;DHT22;15471;51.166;4.470;2023-03-01T06:29:07;-1.80;99.90
28189;DHT22;15471;51.166;4.470;2023-03-01T06:31:35;-1.80;99.90
28189;DHT22;15471;51.166;4.470;2023-03-01T06:34:01;-1.80;99.90
28189;DHT22;15471;51.166;4.470;2023-03-01T06:36:27;-1.80;99.90
28189;DHT22;15471;51.166;4.470;2023-03-01T06:38:53;-1.80;99.90
28189;DHT22;15471;51.166;4.470;2023-03-01T06:41:19;-1.80;99.90
28189;DHT22;15471;51.166;4.470;2023-03-01T06:43:44;-1.90;99.90
28189;DHT22;15471;51.166;4.470;2023-03-01T06:46:10;-1.90;99.90
28189;DHT22;15471;51.166;4.470;2023-03-01T06:48:36;-1.90;99.90
28189;DHT22;15471;51.166;4.470;2023-03-01T06:51:02;-1.80;99.90
28189;DHT22;15471;51.166;4.470;2023-03-01T06:53:29;-1.80;99.90
28189;DHT22;15471;51.166;4.470;2023-03-01T06:55:58;-1.70;99.90
28189;DHT22;15471;51.166;4.470;2023-03-01T06:58:27;-1.70;99.90
28189;DHT22;15471;51.166;4.470;2023-03-01T07:00:53;-1.70;99.90
28189;DHT22;15471;51.166;4.470;2023-03-01T07:03:19;-1.60;99.90
28189;DHT22;15471;51.166;4.470;2023-03-01T07:05:44;-1.60;99.90
28189;DHT22;15471;51.166;4.470;2023-03-01T07:08:10;-1.60;99.90
28189;DHT22;15471;51.166;4.470;2023-03-01T07:10:36;-1.40;99.90
28189;DHT22;15471;51.166;4.470;2023-03-01T07:13:02;-1.50;99.90
28189;DHT22;15471;51.166;4.470;2023-03-01T07:15:28;-1.40;99.90
28189;DHT22;15471;51.166;4.470;2023-03-01T07:17:54;-1.30;99.90
28189;DHT22;15471;51.166;4.470;2023-03-01T07:20:21;-1.30;99.90
28189;DHT22;15471;51.166;4.470;2023-03-01T07:22:51;-1.30;99.90
28189;DHT22;15471;51.166;4.470;2023-03-01T07:25:17;-1.20;99.90
28189;DHT22;15471;51.166;4.470;2023-03-01T07:27:43;-1.20;99.90
28189;DHT22;15471;51.166;4.470;2023-03-01T07:30:09;-1.10;99.90
28189;DHT22;15471;51.166;4.470;2023-03-01T07:32:35;-1.10;99.90
28189;DHT22;15471;51.166;4.470;2023-03-01T07:35:01;-1.00;99.90
28189;DHT22;15471;51.166;4.470;2023-03-01T07:37:27;-1.00;99.90
28189;DHT22;15471;51.166;4.470;2023-03-01T07:39:53;-0.90;99.90
28189;DHT22;15471;51.166;4.470;2023-03-01T07:42:18;-0.80;99.90
28189;DHT22;15471;51.166;4.470;2023-03-01T07:44:44;-0.70;99.90
28189;DHT22;15471;51.166;4.470;2023-03-01T07:47:10;-0.70;99.90
28189;DHT22;15471;51.166;4.470;2023-03-01T07:49:36;-0.60;99.90
28189;DHT22;15471;51.166;4.470;2023-03-01T07:52:01;-0.50;99.90
28189;DHT22;15471;51.166;4.470;2023-03-01T07:54:27;-0.50;99.90
28189;DHT22;15471;51.166;4.470;2023-03-01T07:56:53;-0.50;99.90
28189;DHT22;15471;51.166;4.470;2023-03-01T07:59:20;-0.40;99.90
28189;DHT22;15471;51.166;4.470;2023-03-01T08:01:46;-0.30;99.90
28189;DHT22;15471;51.166;4.470;2023-03-01T08:04:12;-0.30;99.90
28189;DHT22;15471;51.166;4.470;2023-03-01T08:06:37;-0.10;99.90
28189;DHT22;15471;51.166;4.470;2023-03-01T08:09:03;0.00;99.90
28189;DHT22;15471;51.166;4.470;2023-03-01T08:11:29;0.10;99.90
28189;DHT22;15471;51.166;4.470;2023-03-01T08:13:55;0.20;99.90
28189;DHT22;15471;51.166;4.470;2023-03-01T08:16:22;0.20;99.90
28189;DHT22;15471;51.166;4.470;2023-03-01T08:18:47;0.30;99.90
28189;DHT22;15471;51.166;4.470;2023-03-01T08:21:16;0.30;99.90
28189;DHT22;15471;51.166;4.470;2023-03-01T08:23:45;0.40;99.90
28189;DHT22;15471;51.166;4.470;2023-03-01T08:26:14;0.40;99.90
28189;DHT22;15471;51.166;4.470;2023-03-01T08:28:40;0.40;99.90
28189;DHT22;15471;51.166;4.470;2023-03-01T08:33:45;0.60;99.90
28189;DHT22;15471;51.166;4.470;2023-03-01T08:36:17;0.80;99.90
28189;DHT22;15471;51.166;4.470;2023-03-01T08:38:43;0.90;99.90
28189;DHT22;15471;51.166;4.470;2023-03-01T08:41:09;0.90;99.90
28189;DHT22;15471;51.166;4.470;2023-03-01T08:43:35;0.90;99.90
28189;DHT22;15471;51.166;4.470;2023-03-01T08:46:00;1.10;99.90
28189;DHT22;15471;51.166;4.470;2023-03-01T08:48:28;1.10;99.90
28189;DHT22;15471;51.166;4.470;2023-03-01T08:50:54;1.20;99.90
28189;DHT22;15471;51.166;4.470;2023-03-01T08:53:20;1.50;99.90
28189;DHT22;15471;51.166;4.470;2023-03-01T08:55:46;2.30;99.90
28189;DHT22;15471;51.166;4.470;2023-03-01T08:58:12;2.70;99.90
28189;DHT22;15471;51.166;4.470;2023-03-01T09:00:38;3.70;99.90
28189;DHT22;15471;51.166;4.470;2023-03-01T09:03:04;4.70;99.90
28189;DHT22;15471;51.166;4.470;2023-03-01T09:05:33;5.70;99.90
28189;DHT22;15471;51.166;4.470;2023-03-01T09:07:59;6.40;99.90
28189;DHT22;15471;51.166;4.470;2023-03-01T09:10:25;6.60;99.90
28189;DHT22;15471;51.166;4.470;2023-03-01T09:12:51;6.90;99.90
28189;DHT22;15471;51.166;4.470;2023-03-01T09:15:17;6.80;99.90
28189;DHT22;15471;51.166;4.470;2023-03-01T09:17:43;6.20;99.90
28189;DHT22;15471;51.166;4.470;2023-03-01T09:20:09;6.20;99.90
28189;DHT22;15471;51.166;4.470;2023-03-01T09:22:35;6.50;99.90
28189;DHT22;15471;51.166;4.470;2023-03-01T09:25:01;6.20;99.90
28189;DHT22;15471;51.166;4.470;2023-03-01T09:27:27;6.30;99.90
28189;DHT22;15471;51.166;4.470;2023-03-01T09:29:53;5.80;99.90
28189;DHT22;15471;51.166;4.470;2023-03-01T09:32:21;5.10;99.90
28189;DHT22;15471;51.166;4.470;2023-03-01T09:34:47;5.10;99.90
28189;DHT22;15471;51.166;4.470;2023-03-01T09:37:32;5.10;99.90
28189;DHT22;15471;51.166;4.470;2023-03-01T09:39:59;5.10;99.90
28189;DHT22;15471;51.166;4.470;2023-03-01T09:42:25;4.90;99.90
28189;DHT22;15471;51.166;4.470;2023-03-01T09:45:18;4.90;99.90
28189;DHT22;15471;51.166;4.470;2023-03-01T09:47:46;4.80;99.90
28189;DHT22;15471;51.166;4.470;2023-03-01T09:50:20;4.70;99.90
28189;DHT22;15471;51.166;4.470;2023-03-01T09:55:26;4.70;99.90
28189;DHT22;15471;51.166;4.470;2023-03-01T10:00:43;4.80;99.90
28189;DHT22;15471;51.166;4.470;2023-03-01T10:06:29;5.00;99.90
28189;DHT22;15471;51.166;4.470;2023-03-01T10:08:42;5.20;99.90
28189;DHT22;15471;51.166;4.470;2023-03-01T10:11:24;4.90;99.90
28189;DHT22;15471;51.166;4.470;2023-03-01T10:14:03;4.60;99.90
28189;DHT22;15471;51.166;4.470;2023-03-01T10:16:48;4.60;99.90
28189;DHT22;15471;51.166;4.470;2023-03-01T10:19:40;4.70;99.90
28189;DHT22;15471;51.166;4.470;2023-03-01T10:22:22;4.70;99.90
28189;DHT22;15471;51.166;4.470;2023-03-01T10:24:52;4.80;99.90
28189;DHT22;15471;51.166;4.470;2023-03-01T10:27:22;4.70;99.90
28189;DHT22;15471;51.166;4.470;2023-03-01T10:29:51;4.60;99.90
28189;DHT22;15471;51.166;4.470;2023-03-01T10:32:20;4.60;99.90
28189;DHT22;15471;51.166;4.470;2023-03-01T10:34:47;4.60;99.90
28189;DHT22;15471;51.166;4.470;2023-03-01T10:37:16;4.70;99.90
28189;DHT22;15471;51.166;4.470;2023-03-01T10:39:58;4.70;99.90
28189;DHT22;15471;51.166;4.470;2023-03-01T10:42:29;4.70;99.90
28189;DHT22;15471;51.166;4.470;2023-03-01T10:44:57;4.70;99.90
28189;DHT22;15471;51.166;4.470;2023-03-01T10:47:25;4.70;99.90
28189;DHT22;15471;51.166;4.470;2023-03-01T10:49:57;4.90;99.90
28189;DHT22;15471;51.166;4.470;2023-03-01T10:52:24;5.10;99.90
28189;DHT22;15471;51.166;4.470;2023-03-01T10:55:03;5.20;99.90
28189;DHT22;15471;51.166;4.470;2023-03-01T10:57:35;5.30;99.90
28189;DHT22;15471;51.166;4.470;2023-03-01T11:00:17;5.40;99.90
28189;DHT22;15471;51.166;4.470;2023-03-01T11:03:00;5.50;99.90
28189;DHT22;15471;51.166;4.470;2023-03-01T11:05:27;5.30;99.90
28189;DHT22;15471;51.166;4.470;2023-03-01T11:08:00;5.10;99.90
28189;DHT22;15471;51.166;4.470;2023-03-01T11:10:28;5.10;99.90
28189;DHT22;15471;51.166;4.470;2023-03-01T11:15:38;5.20;99.90
28189;DHT22;15471;51.166;4.470;2023-03-01T11:18:03;5.10;99.90
28189;DHT22;15471;51.166;4.470;2023-03-01T11:20:33;5.10;99.90
28189;DHT22;15471;51.166;4.470;2023-03-01T11:23:08;5.30;99.90
28189;DHT22;15471;51.166;4.470;2023-03-01T11:25:37;5.40;99.90
28189;DHT22;15471;51.166;4.470;2023-03-01T11:28:06;5.50;99.90
28189;DHT22;15471;51.166;4.470;2023-03-01T11:30:50;5.50;99.90
28189;DHT22;15471;51.166;4.470;2023-03-01T11:36:27;5.60;99.90
28189;DHT22;15471;51.166;4.470;2023-03-01T11:38:56;5.60;99.90
28189;DHT22;15471;51.166;4.470;2023-03-01T11:41:30;5.50;99.90
28189;DHT22;15471;51.166;4.470;2023-03-01T12:03:01;5.80;99.90
28189;DHT22;15471;51.166;4.470;2023-03-01T12:11:28;6.10;99.90
28189;DHT22;15471;51.166;4.470;2023-03-01T12:22:13;5.90;99.90
28189;DHT22;15471;51.166;4.470;2023-03-01T12:24:50;5.90;99.90
28189;DHT22;15471;51.166;4.470;2023-03-01T12:30:35;6.00;99.90
28189;DHT22;15471;51.166;4.470;2023-03-01T12:33:21;6.10;99.90
28189;DHT22;15471;51.166;4.470;2023-03-01T12:49:08;6.40;99.90
28189;DHT22;15471;51.166;4.470;2023-03-01T12:51:38;6.40;99.90
28189;DHT22;15471;51.166;4.470;2023-03-01T12:54:31;6.50;99.90
28189;DHT22;15471;51.166;4.470;2023-03-01T12:57:02;6.60;99.90
28189;DHT22;15471;51.166;4.470;2023-03-01T13:02:52;6.60;99.90
28189;DHT22;15471;51.166;4.470;2023-03-01T13:08:11;6.60;99.90
28189;DHT22;15471;51.166;4.470;2023-03-01T13:10:50;6.60;99.90
28189;DHT22;15471;51.166;4.470;2023-03-01T13:13:25;6.70;99.90
28189;DHT22;15471;51.166;4.470;2023-03-01T13:15:52;6.60;99.90
28189;DHT22;15471;51.166;4.470;2023-03-01T13:20:49;6.40;99.90
28189;DHT22;15471;51.166;4.470;2023-03-01T13:28:42;6.70;99.90
28189;DHT22;15471;51.166;4.470;2023-03-01T13:39:04;7.10;99.90
28189;DHT22;15471;51.166;4.470;2023-03-01T13:44:35;7.00;99.90
28189;DHT22;15471;51.166;4.470;2023-03-01T13:52:40;7.10;99.90
28189;DHT22;15471;51.166;4.470;2023-03-01T13:55:37;7.20;99.90
28189;DHT22;15471;51.166;4.470;2023-03-01T14:00:45;7.20;99.90
28189;DHT22;15471;51.166;4.470;2023-03-01T14:03:17;7.10;99.90
28189;DHT22;15471;51.166;4.470;2023-03-01T14:05:58;7.20;99.90
28189;DHT22;15471;51.166;4.470;2023-03-01T14:08:26;7.20;99.90
28189;DHT22;15471;51.166;4.470;2023-03-01T14:14:14;7.10;99.90
28189;DHT22;15471;51.166;4.470;2023-03-01T14:17:06;7.00;99.90
28189;DHT22;15471;51.166;4.470;2023-03-01T14:19:33;7.00;99.90
28189;DHT22;15471;51.166;4.470;2023-03-01T14:22:28;7.00;99.90
28189;DHT22;15471;51.166;4.470;2023-03-01T14:25:06;7.00;99.90
28189;DHT22;15471;51.166;4.470;2023-03-01T14:27:42;7.10;99.90
28189;DHT22;15471;51.166;4.470;2023-03-01T14:30:22;7.10;99.90
28189;DHT22;15471;51.166;4.470;2023-03-01T14:36:00;7.20;99.90
28189;DHT22;15471;51.166;4.470;2023-03-01T14:38:45;7.20;99.90
28189;DHT22;15471;51.166;4.470;2023-03-01T14:41:17;7.10;99.90
28189;DHT22;15471;51.166;4.470;2023-03-01T14:43:53;7.00;99.90
28189;DHT22;15471;51.166;4.470;2023-03-01T14:46:26;7.10;99.90
28189;DHT22;15471;51.166;4.470;2023-03-01T14:48:57;7.10;99.90
28189;DHT22;15471;51.166;4.470;2023-03-01T14:51:27;7.00;99.90
28189;DHT22;15471;51.166;4.470;2023-03-01T14:53:53;7.00;99.90
28189;DHT22;15471;51.166;4.470;2023-03-01T14:56:19;6.90;99.90
28189;DHT22;15471;51.166;4.470;2023-03-01T14:58:46;6.90;99.90
28189;DHT22;15471;51.166;4.470;2023-03-01T15:01:17;6.90;99.90
28189;DHT22;15471;51.166;4.470;2023-03-01T15:03:48;7.00;99.90
28189;DHT22;15471;51.166;4.470;2023-03-01T15:06:18;6.90;99.90
28189;DHT22;15471;51.166;4.470;2023-03-01T15:08:50;6.90;99.90
28189;DHT22;15471;51.166;4.470;2023-03-01T15:11:24;6.90;99.90
28189;DHT22;15471;51.166;4.470;2023-03-01T15:13:52;6.90;99.90
28189;DHT22;15471;51.166;4.470;2023-03-01T15:16:26;6.90;99.90
28189;DHT22;15471;51.166;4.470;2023-03-01T15:19:06;7.10;99.90
28189;DHT22;15471;51.166;4.470;2023-03-01T15:21:33;7.10;99.90
28189;DHT22;15471;51.166;4.470;2023-03-01T15:26:57;7.10;99.90
28189;DHT22;15471;51.166;4.470;2023-03-01T15:29:30;7.20;99.90
28189;DHT22;15471;51.166;4.470;2023-03-01T15:32:03;7.10;99.90
28189;DHT22;15471;51.166;4.470;2023-03-01T15:34:37;7.00;99.90
28189;DHT22;15471;51.166;4.470;2023-03-01T15:37:05;7.00;99.90
28189;DHT22;15471;51.166;4.470;2023-03-01T15:42:57;7.00;99.90
28189;DHT22;15471;51.166;4.470;2023-03-01T15:47:39;7.00;99.90
28189;DHT22;15471;51.166;4.470;2023-03-01T15:50:20;7.00;99.90
28189;DHT22;15471;51.166;4.470;2023-03-01T15:52:47;7.10;99.90
28189;DHT22;15471;51.166;4.470;2023-03-01T15:55:28;7.00;99.90
28189;DHT22;15471;51.166;4.470;2023-03-01T15:58:04;7.00;99.90
28189;DHT22;15471;51.166;4.470;2023-03-01T16:00:32;7.00;99.90
28189;DHT22;15471;51.166;4.470;2023-03-01T16:02:58;6.90;99.90
28189;DHT22;15471;51.166;4.470;2023-03-01T16:05:30;6.90;99.90
28189;DHT22;15471;51.166;4.470;2023-03-01T16:07:56;7.00;99.90
28189;DHT22;15471;51.166;4.470;2023-03-01T16:10:22;6.90;99.90
28189;DHT22;15471;51.166;4.470;2023-03-01T16:12:49;6.90;99.90
28189;DHT22;15471;51.166;4.470;2023-03-01T16:15:20;6.90;99.90
28189;DHT22;15471;51.166;4.470;2023-03-01T16:17:47;6.90;99.70
28189;DHT22;15471;51.166;4.470;2023-03-01T16:20:21;6.90;99.90
28189;DHT22;15471;51.166;4.470;2023-03-01T16:22:47;6.90;99.90
28189;DHT22;15471;51.166;4.470;2023-03-01T16:25:15;6.90;99.90
28189;DHT22;15471;51.166;4.470;2023-03-01T16:27:46;6.70;99.90
28189;DHT22;15471;51.166;4.470;2023-03-01T16:30:13;6.70;99.90
28189;DHT22;15471;51.166;4.470;2023-03-01T16:32:40;6.60;99.90
28189;DHT22;15471;51.166;4.470;2023-03-01T16:35:07;6.60;99.90
28189;DHT22;15471;51.166;4.470;2023-03-01T16:37:33;6.60;99.90
28189;DHT22;15471;51.166;4.470;2023-03-01T16:40:00;6.60;99.90
28189;DHT22;15471;51.166;4.470;2023-03-01T16:42:25;6.50;99.90
28189;DHT22;15471;51.166;4.470;2023-03-01T16:44:56;6.50;99.90
28189;DHT22;15471;51.166;4.470;2023-03-01T16:47:22;6.40;99.90
28189;DHT22;15471;51.166;4.470;2023-03-01T16:49:51;6.30;99.90
28189;DHT22;15471;51.166;4.470;2023-03-01T16:52:17;6.20;99.90
28189;DHT22;15471;51.166;4.470;2023-03-01T16:54:43;6.20;99.90
28189;DHT22;15471;51.166;4.470;2023-03-01T16:57:09;6.10;99.90
28189;DHT22;15471;51.166;4.470;2023-03-01T16:59:35;6.00;99.90
28189;DHT22;15471;51.166;4.470;2023-03-01T17:02:03;6.10;99.90
28189;DHT22;15471;51.166;4.470;2023-03-01T17:04:29;6.00;99.90
28189;DHT22;15471;51.166;4.470;2023-03-01T17:06:55;5.90;99.90
28189;DHT22;15471;51.166;4.470;2023-03-01T17:09:21;5.80;99.90
28189;DHT22;15471;51.166;4.470;2023-03-01T17:11:48;5.80;99.90
28189;DHT22;15471;51.166;4.470;2023-03-01T17:14:15;5.70;99.90
28189;DHT22;15471;51.166;4.470;2023-03-01T17:16:42;5.70;99.90
28189;DHT22;15471;51.166;4.470;2023-03-01T17:19:08;5.70;99.90
28189;DHT22;15471;51.166;4.470;2023-03-01T17:21:34;5.60;99.90
28189;DHT22;15471;51.166;4.470;2023-03-01T17:24:01;5.50;99.90
28189;DHT22;15471;51.166;4.470;2023-03-01T17:26:28;5.40;99.90
28189;DHT22;15471;51.166;4.470;2023-03-01T17:28:56;5.40;99.90
28189;DHT22;15471;51.166;4.470;2023-03-01T17:31:23;5.40;99.90
28189;DHT22;15471;51.166;4.470;2023-03-01T17:33:49;5.30;99.90
28189;DHT22;15471;51.166;4.470;2023-03-01T17:36:17;5.30;99.90
28189;DHT22;15471;51.166;4.470;2023-03-01T17:38:43;5.30;99.90
28189;DHT22;15471;51.166;4.470;2023-03-01T17:41:09;5.20;99.90
28189;DHT22;15471;51.166;4.470;2023-03-01T17:43:37;5.10;99.90
28189;DHT22;15471;51.166;4.470;2023-03-01T17:46:03;5.10;99.90
28189;DHT22;15471;51.166;4.470;2023-03-01T17:48:29;5.00;99.90
28189;DHT22;15471;51.166;4.470;2023-03-01T17:50:55;4.90;99.90
28189;DHT22;15471;51.166;4.470;2023-03-01T17:53:21;4.90;99.90
28189;DHT22;15471;51.166;4.470;2023-03-01T17:55:47;4.80;99.90
28189;DHT22;15471;51.166;4.470;2023-03-01T17:58:19;4.70;99.90
28189;DHT22;15471;51.166;4.470;2023-03-01T18:00:48;4.60;99.90
28189;DHT22;15471;51.166;4.470;2023-03-01T18:03:15;4.50;99.90